Time;durP1;ratioP1;P1;durP2;ratioP2;P2;SDS_P1;SDS_P2;PMS_P1;PMS_P2;Temp;Humidity;BMP_temperature;BMP_pressure;BME280_temperature;BME280_humidity;BME280_pressure;Samples;Min_cycle;Max_cycle;Signal;HPM_P1;HPM_P2
2023/01/26 00:01:46;;;;;;;30.42;16.83;;;;;;;;;;5074778;28;20483;-69
2023/01/26 00:04:32;;;;;;;33.70;20.30;;;;;;;;;;5072626;28;20025;-69
2023/01/26 00:07:17;;;;;;;34.22;18.40;;;;;;;;;;5069203;28;20028;-71
2023/01/26 00:10:02;;;;;;;35.28;19.73;;;;;;;;;;5056848;28;20039;-68
2023/01/26 00:12:47;;;;;;;34.58;19.52;;;;;;;;;;5071368;28;20028;-71
2023/01/26 00:15:34;;;;;;;35.78;20.17;;;;;;;;;;5073619;28;20514;-68
2023/01/26 00:18:19;;;;;;;35.45;19.08;;;;;;;;;;5077243;28;20032;-69
2023/01/26 00:21:05;;;;;;;34.45;19.08;;;;;;;;;;5072109;28;20028;-69
2023/01/26 00:23:51;;;;;;;33.42;18.60;;;;;;;;;;5067703;28;20089;-73
2023/01/26 00:26:36;;;;;;;30.83;17.27;;;;;;;;;;5076846;28;20651;-76
2023/01/26 00:29:21;;;;;;;36.25;18.05;;;;;;;;;;5074000;28;20640;-77
2023/01/26 00:32:06;;;;;;;29.70;18.02;;;;;;;;;;5079115;28;20031;-73
2023/01/26 00:34:52;;;;;;;39.25;21.08;;;;;;;;;;5071863;28;20024;-73
2023/01/26 00:37:39;;;;;;;37.50;19.48;;;;;;;;;;5075782;28;20400;-75
2023/01/26 00:40:24;;;;;;;34.53;19.67;;;;;;;;;;5069296;28;20470;-68
2023/01/26 00:43:10;;;;;;;36.63;20.05;;;;;;;;;;5078275;28;20117;-69
2023/01/26 00:45:55;;;;;;;33.03;18.67;;;;;;;;;;5068590;28;20495;-67
2023/01/26 00:48:40;;;;;;;35.15;20.27;;;;;;;;;;5074206;28;20433;-66
2023/01/26 00:51:25;;;;;;;39.30;19.58;;;;;;;;;;5079737;28;20023;-67
2023/01/26 00:54:10;;;;;;;33.65;18.48;;;;;;;;;;5053282;28;20028;-65
2023/01/26 00:56:56;;;;;;;29.45;17.17;;;;;;;;;;5069953;28;20047;-73
2023/01/26 00:59:41;;;;;;;30.83;17.52;;;;;;;;;;5079633;28;20119;-71
2023/01/26 01:02:26;;;;;;;31.33;17.58;;;;;;;;;;5079006;28;20027;-73
2023/01/26 01:05:12;;;;;;;32.47;17.98;;;;;;;;;;5069117;28;20035;-74
2023/01/26 01:07:57;;;;;;;33.47;18.17;;;;;;;;;;5071613;28;20028;-72
2023/01/26 01:10:42;;;;;;;33.30;16.73;;;;;;;;;;5068102;28;20040;-73
2023/01/26 01:13:28;;;;;;;32.05;17.95;;;;;;;;;;5070648;28;20035;-75
2023/01/26 01:16:14;;;;;;;34.80;17.95;;;;;;;;;;5070194;28;20440;-67
2023/01/26 01:18:59;;;;;;;37.15;19.15;;;;;;;;;;5066868;28;20027;-73
2023/01/26 01:21:44;;;;;;;37.38;19.23;;;;;;;;;;5070026;28;20058;-73
2023/01/26 01:24:29;;;;;;;39.17;20.73;;;;;;;;;;5080011;28;20012;-73
2023/01/26 01:27:15;;;;;;;33.30;18.45;;;;;;;;;;5052088;28;20039;-73
2023/01/26 01:30:00;;;;;;;33.67;17.80;;;;;;;;;;5068726;28;20400;-73
2023/01/26 01:32:48;;;;;;;31.38;17.13;;;;;;;;;;5075516;28;20101;-72
2023/01/26 01:35:34;;;;;;;31.27;16.92;;;;;;;;;;5074097;28;20508;-70
2023/01/26 01:38:19;;;;;;;35.08;17.42;;;;;;;;;;5054238;28;20024;-69
2023/01/26 01:41:05;;;;;;;30.40;15.93;;;;;;;;;;5073008;28;20024;-68
2023/01/26 01:43:50;;;;;;;31.88;17.27;;;;;;;;;;5070282;28;20040;-68
2023/01/26 01:46:36;;;;;;;28.50;16.10;;;;;;;;;;5074470;28;20548;-69
2023/01/26 01:49:25;;;;;;;37.72;17.50;;;;;;;;;;5073858;28;20027;-68
2023/01/26 01:52:16;;;;;;;31.20;15.98;;;;;;;;;;5076101;28;20055;-71
2023/01/26 01:55:07;;;;;;;32.63;18.35;;;;;;;;;;5084988;28;20123;-67
2023/01/26 01:57:54;;;;;;;30.08;16.27;;;;;;;;;;5069804;28;20577;-67
2023/01/26 02:00:40;;;;;;;30.27;17.27;;;;;;;;;;5073647;28;20024;-66
2023/01/26 02:03:26;;;;;;;33.03;17.67;;;;;;;;;;5083460;28;20043;-71
2023/01/26 02:06:11;;;;;;;34.85;17.33;;;;;;;;;;5076471;28;20032;-69
2023/01/26 02:08:56;;;;;;;31.30;16.40;;;;;;;;;;5073392;28;20021;-69
2023/01/26 02:11:43;;;;;;;34.25;18.20;;;;;;;;;;5074133;28;20931;-66
2023/01/26 02:14:30;;;;;;;33.85;17.42;;;;;;;;;;5073744;28;20758;-74
2023/01/26 02:17:16;;;;;;;33.95;17.20;;;;;;;;;;5074562;28;20028;-74
2023/01/26 02:20:10;;;;;;;34.83;17.65;;;;;;;;;;5073093;28;20051;-75
2023/01/26 02:22:58;;;;;;;34.38;17.73;;;;;;;;;;5078307;28;20080;-74
2023/01/26 02:25:56;;;;;;;30.20;17.80;;;;;;;;;;5088627;28;20099;-75
2023/01/26 02:28:42;;;;;;;33.42;18.85;;;;;;;;;;5078328;28;20448;-68
2023/01/26 02:31:28;;;;;;;32.67;17.75;;;;;;;;;;5082527;28;20635;-68
2023/01/26 02:34:13;;;;;;;35.78;17.30;;;;;;;;;;5082734;28;20075;-66
2023/01/26 02:36:58;;;;;;;30.25;16.90;;;;;;;;;;5066907;28;20031;-66
2023/01/26 02:39:52;;;;;;;28.35;16.10;;;;;;;;;;5080474;28;20055;-67
2023/01/26 02:42:37;;;;;;;30.88;15.88;;;;;;;;;;5072023;28;20582;-66
2023/01/26 02:45:23;;;;;;;31.63;16.10;;;;;;;;;;5071164;28;20702;-67
2023/01/26 02:48:09;;;;;;;34.92;18.60;;;;;;;;;;5078233;28;20482;-75
2023/01/26 02:50:54;;;;;;;31.48;16.38;;;;;;;;;;5074657;28;20107;-67
2023/01/26 02:53:39;;;;;;;33.08;17.27;;;;;;;;;;5068860;28;20035;-69
2023/01/26 02:56:24;;;;;;;33.47;15.85;;;;;;;;;;5074605;28;20032;-67
2023/01/26 02:59:10;;;;;;;32.30;15.68;;;;;;;;;;5083455;28;20122;-68
2023/01/26 03:01:55;;;;;;;30.38;16.42;;;;;;;;;;5071724;28;20411;-68
2023/01/26 03:04:41;;;;;;;34.55;16.33;;;;;;;;;;5071693;28;20107;-69
2023/01/26 03:07:26;;;;;;;33.70;17.00;;;;;;;;;;5083676;28;20036;-67
2023/01/26 03:10:12;;;;;;;33.20;17.08;;;;;;;;;;5074346;28;20067;-67
2023/01/26 03:12:58;;;;;;;30.30;16.88;;;;;;;;;;5073186;28;20024;-67
2023/01/26 03:15:51;;;;;;;30.70;15.77;;;;;;;;;;5071813;28;20221;-67
2023/01/26 03:27:48;;;;;;;29.30;15.60;;;;;;;;;;5070301;28;20040;-66
2023/01/26 03:30:33;;;;;;;30.15;14.57;;;;;;;;;;5072065;28;20081;-66
2023/01/26 03:33:19;;;;;;;27.48;15.00;;;;;;;;;;5075724;28;20534;-69
2023/01/26 03:36:04;;;;;;;29.60;14.88;;;;;;;;;;5070949;28;20021;-67
2023/01/26 03:38:49;;;;;;;28.15;15.00;;;;;;;;;;5072696;28;20024;-67
2023/01/26 03:56:54;;;;;;;25.38;13.23;;;;;;;;;;5069632;28;20032;-67
2023/01/26 03:59:40;;;;;;;23.67;12.75;;;;;;;;;;5061785;28;20478;-67
2023/01/26 04:08:33;;;;;;;26.15;13.20;;;;;;;;;;5068875;28;20028;-70
2023/01/26 04:11:19;;;;;;;29.75;14.68;;;;;;;;;;5081233;28;20031;-69
2023/01/26 04:23:17;;;;;;;27.95;13.98;;;;;;;;;;5072226;28;20016;-67
2023/01/26 04:26:02;;;;;;;27.42;13.57;;;;;;;;;;5077164;28;20032;-66
2023/01/26 04:28:47;;;;;;;25.42;12.35;;;;;;;;;;5068426;28;20748;-68
2023/01/26 04:31:33;;;;;;;25.05;12.85;;;;;;;;;;5071156;28;20047;-66
2023/01/26 04:34:18;;;;;;;24.23;12.50;;;;;;;;;;5075321;28;20020;-70
2023/01/26 04:37:03;;;;;;;26.95;13.52;;;;;;;;;;5068906;28;20031;-75
2023/01/26 04:39:49;;;;;;;23.15;12.50;;;;;;;;;;5078447;28;20070;-70
2023/01/26 04:42:34;;;;;;;29.75;13.70;;;;;;;;;;5077521;28;20057;-67
2023/01/26 04:45:19;;;;;;;28.42;13.07;;;;;;;;;;5069705;28;20025;-68
2023/01/26 04:48:04;;;;;;;26.63;12.73;;;;;;;;;;5073811;28;20028;-67
2023/01/26 04:50:54;;;;;;;27.63;11.65;;;;;;;;;;5075047;28;20526;-66
2023/01/26 04:53:39;;;;;;;21.38;11.93;;;;;;;;;;5069747;28;20051;-68
2023/01/26 04:56:27;;;;;;;22.85;11.13;;;;;;;;;;5071339;28;20040;-66
2023/01/26 04:59:12;;;;;;;26.63;12.57;;;;;;;;;;5077912;28;20427;-69
2023/01/26 05:01:57;;;;;;;22.73;12.02;;;;;;;;;;5068990;28;20650;-68
2023/01/26 05:04:42;;;;;;;25.35;12.60;;;;;;;;;;5072085;28;20755;-70
2023/01/26 05:07:28;;;;;;;24.27;12.27;;;;;;;;;;5072661;28;20501;-71
2023/01/26 05:10:13;;;;;;;19.38;10.75;;;;;;;;;;5072899;28;20115;-69
2023/01/26 05:12:58;;;;;;;23.17;11.35;;;;;;;;;;5076089;28;20103;-71
2023/01/26 05:15:43;;;;;;;19.10;9.68;;;;;;;;;;5083924;28;20027;-67
2023/01/26 05:18:29;;;;;;;21.75;11.50;;;;;;;;;;5071884;28;20024;-66
2023/01/26 05:21:14;;;;;;;22.25;11.70;;;;;;;;;;5071439;28;20028;-68
2023/01/26 05:23:59;;;;;;;21.60;10.10;;;;;;;;;;5072465;28;20174;-67
2023/01/26 05:26:44;;;;;;;20.90;11.18;;;;;;;;;;5071215;28;20037;-68
2023/01/26 05:29:30;;;;;;;20.38;10.52;;;;;;;;;;5072912;28;20188;-69
2023/01/26 05:32:15;;;;;;;21.38;11.50;;;;;;;;;;5061385;28;20104;-68
2023/01/26 05:35:00;;;;;;;19.55;10.63;;;;;;;;;;5073490;28;20029;-75
2023/01/26 05:37:46;;;;;;;19.13;9.85;;;;;;;;;;5088057;28;20436;-74
2023/01/26 05:40:31;;;;;;;16.75;9.15;;;;;;;;;;5066114;28;20021;-76
2023/01/26 05:43:16;;;;;;;18.08;9.82;;;;;;;;;;5069423;28;20055;-75
2023/01/26 05:46:01;;;;;;;21.80;9.65;;;;;;;;;;5079640;28;20020;-74
2023/01/26 05:48:47;;;;;;;21.85;10.50;;;;;;;;;;5067809;28;20480;-75
2023/01/26 05:51:32;;;;;;;19.50;10.27;;;;;;;;;;5070475;28;20131;-76
2023/01/26 05:54:17;;;;;;;21.08;10.82;;;;;;;;;;5069716;28;20020;-70
2023/01/26 05:57:02;;;;;;;16.55;9.57;;;;;;;;;;5072580;28;20124;-67
2023/01/26 05:59:48;;;;;;;19.33;9.48;;;;;;;;;;5071778;28;20036;-68
2023/01/26 06:02:33;;;;;;;19.45;10.82;;;;;;;;;;5056793;28;20024;-71
2023/01/26 06:05:18;;;;;;;17.98;10.05;;;;;;;;;;5071230;28;20103;-67
2023/01/26 06:08:04;;;;;;;18.45;9.95;;;;;;;;;;5077388;28;20024;-67
2023/01/26 06:10:49;;;;;;;19.10;9.65;;;;;;;;;;5065985;28;20036;-66
2023/01/26 06:13:34;;;;;;;16.83;9.65;;;;;;;;;;5075866;28;20067;-67
2023/01/26 06:16:19;;;;;;;18.50;10.43;;;;;;;;;;5069074;28;20031;-68
2023/01/26 06:19:05;;;;;;;20.40;10.88;;;;;;;;;;5087838;28;20024;-66
2023/01/26 06:21:52;;;;;;;17.70;9.05;;;;;;;;;;5083441;28;20023;-68
2023/01/26 06:24:37;;;;;;;14.65;8.40;;;;;;;;;;5069198;28;20403;-67
2023/01/26 06:27:22;;;;;;;18.98;9.38;;;;;;;;;;5070991;28;20054;-67
2023/01/26 06:30:08;;;;;;;16.25;8.60;;;;;;;;;;5073088;28;20027;-68
2023/01/26 06:32:53;;;;;;;16.30;8.27;;;;;;;;;;5076210;28;20062;-67
2023/01/26 06:35:39;;;;;;;15.85;8.10;;;;;;;;;;5073473;28;20032;-67
2023/01/26 06:38:24;;;;;;;19.10;9.32;;;;;;;;;;5070073;28;20039;-70
2023/01/26 06:41:09;;;;;;;19.83;10.43;;;;;;;;;;5071488;28;20054;-69
2023/01/26 06:43:54;;;;;;;20.27;10.27;;;;;;;;;;5074349;28;20494;-68
2023/01/26 06:46:39;;;;;;;20.67;11.63;;;;;;;;;;5069196;28;20028;-68
2023/01/26 06:49:25;;;;;;;21.77;11.48;;;;;;;;;;5074722;28;20330;-70
2023/01/26 06:52:28;;;;;;;20.25;11.70;;;;;;;;;;5084443;28;20054;-71
2023/01/26 06:55:15;;;;;;;19.77;10.05;;;;;;;;;;5072353;28;20438;-71
2023/01/26 06:58:00;;;;;;;21.88;9.75;;;;;;;;;;5069428;28;20035;-69
2023/01/26 07:00:46;;;;;;;20.45;11.15;;;;;;;;;;5085488;28;20530;-70
2023/01/26 07:03:31;;;;;;;18.42;10.02;;;;;;;;;;5084541;28;20082;-68
2023/01/26 07:06:16;;;;;;;20.42;9.88;;;;;;;;;;5054129;28;20036;-69
2023/01/26 07:09:02;;;;;;;22.98;10.93;;;;;;;;;;5073033;28;20224;-69
2023/01/26 07:11:47;;;;;;;19.35;10.13;;;;;;;;;;5069653;28;20035;-70
2023/01/26 07:14:32;;;;;;;17.48;9.43;;;;;;;;;;5070265;28;20024;-70
2023/01/26 07:17:17;;;;;;;18.67;10.18;;;;;;;;;;5081613;28;20032;-68
2023/01/26 07:20:03;;;;;;;16.25;9.07;;;;;;;;;;5080360;28;20488;-69
2023/01/26 07:22:48;;;;;;;16.90;9.40;;;;;;;;;;5077457;28;20107;-67
2023/01/26 07:25:34;;;;;;;19.77;10.95;;;;;;;;;;5081134;28;20028;-67
2023/01/26 07:28:19;;;;;;;20.05;10.57;;;;;;;;;;5083735;28;20069;-68
2023/01/26 07:31:05;;;;;;;27.35;10.43;;;;;;;;;;5077925;28;20024;-69
2023/01/26 07:33:50;;;;;;;18.83;10.48;;;;;;;;;;5067936;28;20028;-69
2023/01/26 07:36:35;;;;;;;17.02;8.85;;;;;;;;;;5075504;28;20231;-67
2023/01/26 07:39:20;;;;;;;18.38;10.18;;;;;;;;;;5080107;28;20069;-68
2023/01/26 07:42:05;;;;;;;18.27;9.43;;;;;;;;;;5074772;28;20024;-68
2023/01/26 07:44:51;;;;;;;19.67;10.02;;;;;;;;;;5072697;28;20302;-67
2023/01/26 07:47:36;;;;;;;18.33;9.65;;;;;;;;;;5075853;28;20119;-70
2023/01/26 07:50:24;;;;;;;18.80;10.05;;;;;;;;;;5075666;28;20462;-68
2023/01/26 07:53:11;;;;;;;17.98;9.25;;;;;;;;;;5070902;28;20197;-68
2023/01/26 07:56:07;;;;;;;16.08;8.88;;;;;;;;;;5079943;28;20029;-69
2023/01/26 07:58:53;;;;;;;19.10;8.85;;;;;;;;;;5075386;28;20074;-67
2023/01/26 08:01:38;;;;;;;15.50;8.13;;;;;;;;;;5076918;28;20033;-69
2023/01/26 08:04:23;;;;;;;20.13;9.95;;;;;;;;;;5072083;28;20039;-70
2023/01/26 08:07:08;;;;;;;15.23;8.65;;;;;;;;;;5058815;28;20037;-68
2023/01/26 08:09:54;;;;;;;17.65;8.10;;;;;;;;;;5076146;28;20035;-69
2023/01/26 08:12:39;;;;;;;18.63;8.77;;;;;;;;;;5075002;28;20555;-69
2023/01/26 08:15:24;;;;;;;17.92;9.43;;;;;;;;;;5074774;28;20016;-69
2023/01/26 08:18:09;;;;;;;18.13;10.27;;;;;;;;;;5069154;28;20134;-68
2023/01/26 08:20:54;;;;;;;17.42;8.95;;;;;;;;;;5076823;28;20481;-67
2023/01/26 08:23:40;;;;;;;20.15;8.73;;;;;;;;;;5078349;28;20081;-65
2023/01/26 08:26:25;;;;;;;18.13;8.43;;;;;;;;;;5085115;28;20043;-65
2023/01/26 08:29:10;;;;;;;15.82;7.50;;;;;;;;;;5077593;28;20027;-68
2023/01/26 08:31:55;;;;;;;17.33;7.13;;;;;;;;;;5076025;28;20086;-66
2023/01/26 08:34:44;;;;;;;14.15;7.20;;;;;;;;;;5076351;28;20051;-67
2023/01/26 08:37:29;;;;;;;15.05;7.95;;;;;;;;;;5073207;28;20470;-69
2023/01/26 08:40:15;;;;;;;15.30;7.63;;;;;;;;;;5075018;28;20032;-67
2023/01/26 08:43:01;;;;;;;15.07;8.02;;;;;;;;;;5074771;28;20049;-70
2023/01/26 08:45:46;;;;;;;15.60;7.97;;;;;;;;;;5073992;28;20135;-67
2023/01/26 08:48:31;;;;;;;14.45;7.75;;;;;;;;;;5076126;28;20044;-67
2023/01/26 08:51:16;;;;;;;14.68;7.78;;;;;;;;;;5076177;28;20104;-66
2023/01/26 08:54:04;;;;;;;16.48;8.10;;;;;;;;;;5072729;28;20032;-65
2023/01/26 08:56:49;;;;;;;14.32;7.50;;;;;;;;;;5060779;28;20636;-72
2023/01/26 08:59:34;;;;;;;12.50;6.20;;;;;;;;;;5080063;28;20027;-67
2023/01/26 09:02:20;;;;;;;12.77;6.65;;;;;;;;;;5072138;28;20479;-67
2023/01/26 09:05:05;;;;;;;16.63;8.05;;;;;;;;;;5071240;28;20452;-67
2023/01/26 09:07:50;;;;;;;17.95;8.05;;;;;;;;;;5072439;28;20028;-67
2023/01/26 09:10:36;;;;;;;16.63;8.68;;;;;;;;;;5069005;28;20032;-66
2023/01/26 09:13:21;;;;;;;16.27;8.80;;;;;;;;;;5080227;28;20024;-74
2023/01/26 09:16:11;;;;;;;15.63;8.70;;;;;;;;;;5071404;28;20027;-69
2023/01/26 09:18:56;;;;;;;17.58;8.88;;;;;;;;;;5073054;28;20418;-66
2023/01/26 09:21:41;;;;;;;16.95;8.90;;;;;;;;;;5068815;28;20093;-66
2023/01/26 09:24:26;;;;;;;14.85;7.57;;;;;;;;;;5078792;28;20025;-67
2023/01/26 09:27:12;;;;;;;15.15;8.20;;;;;;;;;;5075973;28;20440;-65
2023/01/26 09:29:57;;;;;;;13.35;6.70;;;;;;;;;;5085841;28;20039;-67
2023/01/26 09:32:42;;;;;;;15.75;8.35;;;;;;;;;;5078566;28;20047;-67
2023/01/26 09:35:28;;;;;;;19.45;8.23;;;;;;;;;;5073824;28;20028;-75
2023/01/26 09:38:13;;;;;;;14.60;7.78;;;;;;;;;;5073704;28;20037;-74
2023/01/26 09:40:58;;;;;;;15.52;7.93;;;;;;;;;;5078720;28;20228;-73
2023/01/26 09:43:49;;;;;;;17.88;9.60;;;;;;;;;;5072858;28;20079;-74
2023/01/26 09:46:40;;;;;;;15.52;7.68;;;;;;;;;;5055039;28;20045;-74
2023/01/26 09:49:30;;;;;;;19.23;8.80;;;;;;;;;;5072603;28;20016;-75
2023/01/26 09:52:31;;;;;;;15.63;9.05;;;;;;;;;;5076864;28;20117;-68
2023/01/26 09:55:19;;;;;;;16.20;8.30;;;;;;;;;;5080850;28;20548;-76
2023/01/26 09:58:05;;;;;;;17.20;8.10;;;;;;;;;;5065207;28;20020;-76
2023/01/26 10:00:53;;;;;;;15.10;7.90;;;;;;;;;;5071689;28;20071;-75
2023/01/26 10:03:40;;;;;;;12.77;7.55;;;;;;;;;;5082825;28;20055;-77
2023/01/26 10:06:27;;;;;;;15.10;7.65;;;;;;;;;;5069118;28;20044;-78
2023/01/26 10:09:33;;;;;;;16.55;8.50;;;;;;;;;;5074277;28;20040;-77
2023/01/26 10:12:19;;;;;;;13.93;7.38;;;;;;;;;;5075429;28;20043;-69
2023/01/26 10:15:11;;;;;;;17.33;8.13;;;;;;;;;;5074444;28;20067;-67
2023/01/26 10:17:59;;;;;;;14.88;7.85;;;;;;;;;;5086697;28;20114;-68
2023/01/26 10:20:47;;;;;;;17.63;8.00;;;;;;;;;;5072743;28;20032;-64
2023/01/26 10:23:33;;;;;;;17.92;7.82;;;;;;;;;;5093429;28;20028;-66
2023/01/26 10:26:20;;;;;;;15.30;7.25;;;;;;;;;;5082249;28;20514;-65
2023/01/26 10:29:05;;;;;;;16.70;7.47;;;;;;;;;;5081607;28;20031;-68
2023/01/26 10:31:50;;;;;;;16.30;7.70;;;;;;;;;;5064854;28;20032;-68
2023/01/26 10:34:37;;;;;;;13.70;7.05;;;;;;;;;;5087562;28;20062;-69
2023/01/26 10:37:25;;;;;;;14.10;7.32;;;;;;;;;;5072899;28;20094;-67
2023/01/26 10:40:10;;;;;;;17.75;7.32;;;;;;;;;;5078360;28;20493;-68
2023/01/26 10:42:57;;;;;;;15.32;7.68;;;;;;;;;;5084980;28;20055;-68
2023/01/26 10:45:44;;;;;;;13.75;7.13;;;;;;;;;;5075954;28;20072;-66
2023/01/26 10:48:29;;;;;;;13.60;6.38;;;;;;;;;;5071271;28;20028;-72
2023/01/26 10:51:15;;;;;;;12.90;6.40;;;;;;;;;;5071675;28;20020;-73
2023/01/26 10:54:19;;;;;;;11.73;5.68;;;;;;;;;;5081659;28;20124;-74
2023/01/26 10:57:23;;;;;;;11.45;5.60;;;;;;;;;;5082571;28;20154;-75
2023/01/26 11:00:18;;;;;;;12.02;5.72;;;;;;;;;;5071767;28;20070;-73
2023/01/26 11:03:04;;;;;;;12.68;5.90;;;;;;;;;;5077927;28;20086;-74
2023/01/26 11:06:03;;;;;;;14.75;5.90;;;;;;;;;;5078541;28;20047;-81
2023/01/26 11:08:49;;;;;;;11.90;5.72;;;;;;;;;;5074656;28;20495;-78
2023/01/26 11:11:34;;;;;;;15.63;6.78;;;;;;;;;;5080513;28;20032;-76
2023/01/26 11:14:20;;;;;;;13.02;6.63;;;;;;;;;;5072081;28;20601;-77
2023/01/26 11:17:08;;;;;;;11.85;5.75;;;;;;;;;;5070587;28;20035;-77
2023/01/26 11:19:57;;;;;;;12.73;6.20;;;;;;;;;;5067069;28;20046;-76
2023/01/26 11:23:02;;;;;;;16.42;7.28;;;;;;;;;;5076105;28;20055;-66
2023/01/26 11:26:04;;;;;;;14.35;6.63;;;;;;;;;;5080162;28;20105;-69
2023/01/26 11:28:58;;;;;;;20.08;8.50;;;;;;;;;;5075373;28;20103;-68
2023/01/26 11:32:02;;;;;;;16.85;7.50;;;;;;;;;;5073426;28;20028;-68
2023/01/26 11:34:50;;;;;;;17.10;7.68;;;;;;;;;;5075860;28;20016;-69
2023/01/26 11:37:39;;;;;;;15.13;9.07;;;;;;;;;;5073337;28;20057;-68
2023/01/26 11:40:24;;;;;;;16.27;7.43;;;;;;;;;;5084024;28;20034;-74
2023/01/26 11:43:28;;;;;;;13.85;7.32;;;;;;;;;;5069615;28;20051;-69
2023/01/26 11:46:16;;;;;;;15.77;7.78;;;;;;;;;;5074184;28;20028;-69
2023/01/26 11:49:15;;;;;;;26.00;9.95;;;;;;;;;;5068435;28;20099;-71
2023/01/26 11:52:12;;;;;;;15.15;7.88;;;;;;;;;;5074814;28;20503;-68
2023/01/26 11:55:09;;;;;;;18.35;8.63;;;;;;;;;;5073705;28;20075;-68
2023/01/26 11:57:55;;;;;;;17.05;8.45;;;;;;;;;;5075819;28;20556;-70
2023/01/26 12:00:42;;;;;;;17.25;8.63;;;;;;;;;;5068976;28;20028;-78
2023/01/26 12:03:39;;;;;;;18.23;8.07;;;;;;;;;;5073761;28;20032;-70
2023/01/26 12:06:28;;;;;;;15.95;6.85;;;;;;;;;;5075786;28;20034;-69
2023/01/26 12:09:17;;;;;;;15.02;6.75;;;;;;;;;;5087843;28;20020;-70
2023/01/26 12:12:08;;;;;;;15.65;7.80;;;;;;;;;;5091743;27;20090;-70
2023/01/26 12:15:01;;;;;;;15.25;7.25;;;;;;;;;;5076812;28;20032;-68
2023/01/26 12:17:49;;;;;;;19.63;9.55;;;;;;;;;;5077883;28;20063;-68
2023/01/26 12:20:38;;;;;;;14.80;7.93;;;;;;;;;;5075491;28;20040;-69
2023/01/26 12:23:37;;;;;;;13.55;6.15;;;;;;;;;;5073410;28;20024;-69
2023/01/26 12:26:24;;;;;;;13.30;7.38;;;;;;;;;;5083252;28;20044;-69
2023/01/26 12:29:16;;;;;;;14.20;7.65;;;;;;;;;;5076867;28;20513;-69
2023/01/26 12:32:05;;;;;;;15.32;7.30;;;;;;;;;;5087373;28;20024;-68
2023/01/26 12:34:50;;;;;;;13.88;8.00;;;;;;;;;;5078173;28;20028;-68
2023/01/26 12:37:45;;;;;;;15.82;7.75;;;;;;;;;;5072958;28;20088;-68
2023/01/26 12:40:39;;;;;;;12.82;7.43;;;;;;;;;;5075152;28;20465;-69
2023/01/26 12:43:43;;;;;;;13.02;6.38;;;;;;;;;;5081861;28;20401;-69
2023/01/26 12:46:31;;;;;;;18.33;6.63;;;;;;;;;;5061575;28;20027;-69
2023/01/26 12:49:40;;;;;;;12.45;6.32;;;;;;;;;;5070546;28;20119;-69
2023/01/26 12:52:45;;;;;;;13.53;6.80;;;;;;;;;;5066913;28;20033;-69
2023/01/26 12:55:39;;;;;;;18.27;7.75;;;;;;;;;;5078073;28;20261;-69
2023/01/26 12:58:30;;;;;;;17.52;7.82;;;;;;;;;;5059838;28;20020;-67
2023/01/26 13:01:20;;;;;;;14.55;7.10;;;;;;;;;;5076587;28;20052;-66
2023/01/26 13:04:13;;;;;;;14.70;7.28;;;;;;;;;;5075137;28;20028;-67
2023/01/26 13:07:03;;;;;;;15.05;6.88;;;;;;;;;;5071426;28;20562;-65
2023/01/26 13:09:48;;;;;;;;;;;;;;;;;;5067030;28;20035;-66
2023/01/26 13:12:53;;;;;;;15.55;7.72;;;;;;;;;;5072475;28;19930;-75
2023/01/26 13:15:39;;;;;;;17.05;8.43;;;;;;;;;;5076032;28;20020;-72
2023/01/26 13:18:44;;;;;;;14.98;7.93;;;;;;;;;;5073077;28;20016;-75
2023/01/26 13:21:32;;;;;;;17.10;7.47;;;;;;;;;;5070855;28;20012;-75
2023/01/26 13:24:18;;;;;;;17.00;8.32;;;;;;;;;;5073792;28;20592;-74
2023/01/26 13:27:23;;;;;;;18.67;9.50;;;;;;;;;;5088404;28;20119;-75
2023/01/26 13:30:20;;;;;;;15.32;7.57;;;;;;;;;;5082624;28;20472;-74
2023/01/26 13:33:24;;;;;;;14.02;7.35;;;;;;;;;;5069417;28;20031;-70
2023/01/26 13:36:13;;;;;;;15.57;7.82;;;;;;;;;;5075336;28;20147;-72
2023/01/26 13:39:11;;;;;;;13.77;6.73;;;;;;;;;;5069333;28;20577;-72
2023/01/26 13:41:56;;;;;;;17.05;7.38;;;;;;;;;;5073459;28;20528;-74
2023/01/26 13:44:44;;;;;;;14.10;8.07;;;;;;;;;;5077397;28;20024;-71
2023/01/26 13:47:34;;;;;;;16.88;7.45;;;;;;;;;;5090495;28;20046;-72
2023/01/26 13:50:30;;;;;;;15.00;6.72;;;;;;;;;;5068783;28;20463;-73
2023/01/26 13:53:27;;;;;;;13.70;6.90;;;;;;;;;;5076840;28;20099;-77
2023/01/26 13:56:21;;;;;;;15.98;8.00;;;;;;;;;;5076611;28;20036;-77
2023/01/26 13:59:08;;;;;;;16.90;8.07;;;;;;;;;;5083988;28;20486;-77
2023/01/26 14:01:55;;;;;;;15.45;7.85;;;;;;;;;;5080723;28;20035;-79
2023/01/26 14:04:49;;;;;;;16.33;8.95;;;;;;;;;;5079250;28;20025;-78
2023/01/26 14:07:37;;;;;;;15.18;7.32;;;;;;;;;;5078227;28;20040;-70
2023/01/26 14:10:22;;;;;;;15.55;7.85;;;;;;;;;;5073288;28;20935;-68
2023/01/26 14:13:18;;;;;;;16.88;8.45;;;;;;;;;;5074148;28;20113;-68
2023/01/26 14:16:04;;;;;;;14.48;7.90;;;;;;;;;;5078357;28;20032;-70
2023/01/26 14:18:50;;;;;;;16.77;7.45;;;;;;;;;;5082733;28;20020;-69
2023/01/26 14:21:49;;;;;;;15.25;8.35;;;;;;;;;;5076820;28;20028;-70
2023/01/26 14:24:38;;;;;;;16.95;8.60;;;;;;;;;;5077518;28;20111;-69
2023/01/26 14:27:27;;;;;;;18.33;9.07;;;;;;;;;;5070791;28;20047;-68
2023/01/26 14:30:29;;;;;;;14.13;7.57;;;;;;;;;;5078533;28;20032;-69
2023/01/26 14:33:15;;;;;;;14.63;8.05;;;;;;;;;;5077367;28;20025;-69
2023/01/26 14:36:01;;;;;;;15.98;8.98;;;;;;;;;;5075509;28;20012;-71
2023/01/26 14:38:51;;;;;;;18.05;9.68;;;;;;;;;;5074165;28;20040;-71
2023/01/26 14:41:36;;;;;;;17.90;9.63;;;;;;;;;;5070800;28;20693;-69
2023/01/26 14:44:21;;;;;;;21.00;9.05;;;;;;;;;;5074807;28;20131;-77
2023/01/26 14:47:07;;;;;;;19.02;10.50;;;;;;;;;;5087255;28;20392;-68
2023/01/26 14:49:59;;;;;;;16.00;9.25;;;;;;;;;;5085138;28;20016;-68
2023/01/26 14:52:45;;;;;;;17.65;10.32;;;;;;;;;;5081648;28;20115;-69
2023/01/26 14:55:32;;;;;;;20.98;9.13;;;;;;;;;;5070884;28;20021;-70
2023/01/26 14:58:28;;;;;;;16.85;8.77;;;;;;;;;;5060949;28;20094;-69
2023/01/26 15:01:19;;;;;;;17.15;8.98;;;;;;;;;;5069883;28;20028;-69
2023/01/26 15:04:15;;;;;;;17.02;8.77;;;;;;;;;;5075909;28;20516;-68
2023/01/26 15:07:19;;;;;;;16.83;8.07;;;;;;;;;;5055978;28;20032;-73
2023/01/26 15:10:23;;;;;;;18.33;8.77;;;;;;;;;;5070292;28;20028;-73
2023/01/26 15:13:08;;;;;;;17.30;8.93;;;;;;;;;;5071270;28;20032;-73
2023/01/26 15:16:02;;;;;;;16.58;8.45;;;;;;;;;;5071327;28;20376;-73
2023/01/26 15:18:58;;;;;;;15.93;8.05;;;;;;;;;;5076367;28;20186;-73
2023/01/26 15:21:45;;;;;;;16.85;8.88;;;;;;;;;;5069677;28;20052;-68
2023/01/26 15:24:30;;;;;;;16.33;8.95;;;;;;;;;;5074014;28;20024;-68
2023/01/26 15:27:16;;;;;;;16.63;8.27;;;;;;;;;;5081480;28;20065;-70
2023/01/26 15:30:03;;;;;;;17.67;8.75;;;;;;;;;;5079442;28;20048;-69
2023/01/26 15:32:48;;;;;;;14.75;8.65;;;;;;;;;;5076173;28;20083;-68
2023/01/26 15:35:33;;;;;;;18.70;9.40;;;;;;;;;;5070087;28;20093;-66
2023/01/26 15:38:19;;;;;;;18.17;9.23;;;;;;;;;;5081755;28;20024;-69
2023/01/26 15:41:07;;;;;;;19.40;9.63;;;;;;;;;;5072283;28;20045;-68
2023/01/26 15:43:52;;;;;;;17.48;9.13;;;;;;;;;;5071547;28;20055;-68
2023/01/26 15:46:37;;;;;;;17.33;8.27;;;;;;;;;;5078279;28;20059;-70
2023/01/26 15:49:23;;;;;;;18.17;8.75;;;;;;;;;;5076191;28;20055;-67
2023/01/26 15:52:13;;;;;;;20.65;8.80;;;;;;;;;;5072320;28;20039;-68
2023/01/26 15:54:58;;;;;;;19.50;9.40;;;;;;;;;;5091816;28;20028;-70
2023/01/26 15:57:43;;;;;;;17.70;8.68;;;;;;;;;;5075679;28;20101;-68
2023/01/26 16:00:28;;;;;;;22.80;10.82;;;;;;;;;;5068688;28;20017;-71
2023/01/26 16:03:15;;;;;;;20.67;10.23;;;;;;;;;;5077782;28;20025;-69
2023/01/26 16:06:00;;;;;;;16.73;8.75;;;;;;;;;;5081224;28;20044;-70
2023/01/26 16:08:46;;;;;;;16.05;8.85;;;;;;;;;;5077354;28;20031;-71
2023/01/26 16:11:33;;;;;;;20.27;10.00;;;;;;;;;;5071426;28;20077;-70
2023/01/26 16:14:19;;;;;;;20.42;9.35;;;;;;;;;;5084620;28;20035;-72
2023/01/26 16:17:14;;;;;;;19.90;9.35;;;;;;;;;;5080755;28;20024;-82
2023/01/26 16:20:00;;;;;;;17.33;8.82;;;;;;;;;;5056826;28;20025;-77
2023/01/26 16:22:45;;;;;;;15.70;8.93;;;;;;;;;;5072689;28;20450;-76
2023/01/26 16:25:30;;;;;;;16.48;9.82;;;;;;;;;;5080508;28;20020;-75
2023/01/26 16:28:16;;;;;;;17.95;10.05;;;;;;;;;;5090090;28;20027;-74
2023/01/26 16:31:04;;;;;;;21.17;10.27;;;;;;;;;;5079343;28;20036;-74
2023/01/26 16:33:49;;;;;;;19.92;10.40;;;;;;;;;;5077605;28;20598;-77
2023/01/26 16:36:35;;;;;;;21.67;10.43;;;;;;;;;;5082185;28;20341;-78
2023/01/26 16:39:20;;;;;;;18.63;9.82;;;;;;;;;;5072547;28;20420;-71
2023/01/26 16:42:07;;;;;;;17.63;10.38;;;;;;;;;;5067049;28;20016;-70
2023/01/26 16:44:52;;;;;;;18.08;9.82;;;;;;;;;;5073304;28;20472;-69
2023/01/26 16:47:38;;;;;;;21.02;9.95;;;;;;;;;;5075828;28;20043;-70
2023/01/26 16:50:24;;;;;;;18.52;9.98;;;;;;;;;;5061240;28;20028;-69
2023/01/26 16:53:18;;;;;;;18.48;9.82;;;;;;;;;;5077651;28;20375;-71
2023/01/26 16:56:05;;;;;;;24.63;11.30;;;;;;;;;;5073877;28;20312;-70
2023/01/26 16:58:50;;;;;;;19.38;10.00;;;;;;;;;;5088187;28;20288;-68
2023/01/26 17:01:36;;;;;;;18.83;9.88;;;;;;;;;;5080917;28;20116;-69
2023/01/26 17:04:21;;;;;;;19.20;9.15;;;;;;;;;;5081494;28;20047;-68
2023/01/26 17:07:06;;;;;;;18.05;9.45;;;;;;;;;;5085958;28;20644;-68